Time;durP1;ratioP1;P1;durP2;ratioP2;P2;SDS_P1;SDS_P2;PMS_P1;PMS_P2;Temp;Humidity;BMP_temperature;BMP_pressure;BME280_temperature;BME280_humidity;BME280_pressure;Samples;Min_cycle;Max_cycle;Signal;HPM_P1;HPM_P2
2022/03/19 00:01:20;;;;;;;18.55;12.85;;;;;;;;;;10282939;28;20080;-49
2022/03/19 00:06:19;;;;;;;16.98;12.07;;;;;;;;;;10278625;28;20129;-53
2022/03/19 00:11:20;;;;;;;16.25;10.02;;;;;;;;;;10278433;28;20446;-49
2022/03/19 00:16:21;;;;;;;27.85;17.52;;;;;;;;;;10310949;28;20087;-53
2022/03/19 00:21:20;;;;;;;32.38;18.42;;;;;;;;;;10280562;28;20068;-51
2022/03/19 00:26:19;;;;;;;23.63;14.85;;;;;;;;;;10279661;28;20084;-52
2022/03/19 00:31:18;;;;;;;17.83;12.73;;;;;;;;;;10277261;28;20080;-54
2022/03/19 00:36:17;;;;;;;21.08;10.60;;;;;;;;;;10277230;28;20072;-52
2022/03/19 00:41:16;;;;;;;18.38;12.32;;;;;;;;;;10316348;28;20083;-54
2022/03/19 00:46:15;;;;;;;17.52;12.52;;;;;;;;;;10276928;28;20083;-54
2022/03/19 00:51:13;;;;;;;21.83;12.48;;;;;;;;;;10276481;28;20501;-53
2022/03/19 00:56:13;;;;;;;23.70;15.95;;;;;;;;;;10276511;28;20068;-54
2022/03/19 01:01:11;;;;;;;23.13;15.65;;;;;;;;;;10280194;28;20369;-48
2022/03/19 01:06:10;;;;;;;23.13;14.82;;;;;;;;;;10276040;28;20115;-53
2022/03/19 01:11:08;;;;;;;32.55;18.02;;;;;;;;;;10276962;28;20072;-52
2022/03/19 01:16:08;;;;;;;20.45;13.32;;;;;;;;;;10276843;28;20064;-51
2022/03/19 01:21:08;;;;;;;19.50;13.57;;;;;;;;;;10276770;28;20084;-53
2022/03/19 01:26:06;;;;;;;21.13;13.35;;;;;;;;;;10277861;28;20506;-52
2022/03/19 01:31:04;;;;;;;23.08;13.57;;;;;;;;;;10279806;28;20073;-51
2022/03/19 01:36:05;;;;;;;34.25;16.77;;;;;;;;;;10277254;28;20084;-52
2022/03/19 01:41:03;;;;;;;22.92;12.07;;;;;;;;;;10276511;28;20099;-52
2022/03/19 01:46:02;;;;;;;19.30;12.10;;;;;;;;;;10276804;28;20512;-51
2022/03/19 01:51:00;;;;;;;20.40;14.48;;;;;;;;;;10275253;28;20072;-53
2022/03/19 01:56:00;;;;;;;35.88;19.88;;;;;;;;;;10275120;28;20501;-51
2022/03/19 02:00:58;;;;;;;19.48;14.02;;;;;;;;;;10279119;28;20087;-52
2022/03/19 02:05:58;;;;;;;17.83;12.18;;;;;;;;;;10275148;28;20080;-53
2022/03/19 02:10:56;;;;;;;17.25;13.45;;;;;;;;;;10274837;28;20481;-54
2022/03/19 02:15:56;;;;;;;15.23;11.30;;;;;;;;;;10276150;28;20102;-54
2022/03/19 02:20:57;;;;;;;20.33;13.25;;;;;;;;;;10274648;28;20517;-49
2022/03/19 02:25:57;;;;;;;16.67;12.07;;;;;;;;;;10277949;28;20118;-51
2022/03/19 02:30:55;;;;;;;16.40;12.20;;;;;;;;;;10275413;28;20095;-52
2022/03/19 02:35:54;;;;;;;17.90;11.55;;;;;;;;;;10278051;28;20576;-51
2022/03/19 02:40:52;;;;;;;13.60;9.98;;;;;;;;;;10275439;28;20069;-53
2022/03/19 02:45:52;;;;;;;13.48;9.27;;;;;;;;;;10274311;28;20076;-50
2022/03/19 02:50:50;;;;;;;16.40;9.82;;;;;;;;;;10274784;28;20077;-51
2022/03/19 02:55:49;;;;;;;13.15;10.18;;;;;;;;;;10282146;28;20091;-52
2022/03/19 03:00:48;;;;;;;15.73;10.63;;;;;;;;;;10282208;28;20083;-51
2022/03/19 03:05:48;;;;;;;14.82;10.55;;;;;;;;;;10284755;28;20089;-53
2022/03/19 03:10:47;;;;;;;16.40;10.77;;;;;;;;;;10285736;28;20072;-53
2022/03/19 03:15:45;;;;;;;18.58;11.48;;;;;;;;;;10281395;28;20076;-52
2022/03/19 03:20:43;;;;;;;18.13;10.15;;;;;;;;;;10280545;28;20103;-50
2022/03/19 03:25:43;;;;;;;18.60;11.80;;;;;;;;;;10280978;28;20175;-52
2022/03/19 03:30:41;;;;;;;19.08;11.57;;;;;;;;;;10282126;28;20486;-51
2022/03/19 03:35:39;;;;;;;19.98;12.18;;;;;;;;;;10280444;28;20080;-49
2022/03/19 03:40:38;;;;;;;17.83;11.43;;;;;;;;;;10280531;28;20442;-51
2022/03/19 03:45:38;;;;;;;21.30;14.70;;;;;;;;;;10280625;28;20107;-53
2022/03/19 03:50:37;;;;;;;16.15;12.20;;;;;;;;;;10279976;28;20083;-53
2022/03/19 03:55:36;;;;;;;22.35;13.80;;;;;;;;;;10283456;28;20080;-52
2022/03/19 04:00:34;;;;;;;37.83;18.48;;;;;;;;;;10280905;28;20069;-50
2022/03/19 04:05:34;;;;;;;45.13;22.88;;;;;;;;;;10278496;28;20076;-53
2022/03/19 04:10:33;;;;;;;36.67;18.58;;;;;;;;;;10311729;28;20084;-52
2022/03/19 04:15:31;;;;;;;31.25;15.57;;;;;;;;;;10317727;28;20462;-51
2022/03/19 04:20:30;;;;;;;24.85;15.77;;;;;;;;;;10316656;28;20087;-52
2022/03/19 04:25:29;;;;;;;25.63;15.88;;;;;;;;;;10316656;28;20471;-53
2022/03/19 04:30:28;;;;;;;29.27;15.27;;;;;;;;;;10290040;28;20072;-52
2022/03/19 04:40:45;;;;;;;22.40;15.93;;;;;;;;;;10281907;28;20068;-52
2022/03/19 04:45:44;;;;;;;27.30;17.17;;;;;;;;;;10278955;28;20072;-54
2022/03/19 04:50:43;;;;;;;32.33;19.05;;;;;;;;;;10279210;28;20068;-52
2022/03/19 04:55:42;;;;;;;32.80;18.30;;;;;;;;;;10281596;28;20091;-53
2022/03/19 05:00:42;;;;;;;26.17;16.65;;;;;;;;;;10280991;28;20084;-52
2022/03/19 05:05:40;;;;;;;27.88;18.48;;;;;;;;;;10278428;28;20064;-53
2022/03/19 05:15:56;;;;;;;33.72;19.77;;;;;;;;;;10280969;28;20091;-54
2022/03/19 05:20:56;;;;;;;34.35;19.15;;;;;;;;;;10277174;28;20077;-53
2022/03/19 05:25:55;;;;;;;28.63;17.30;;;;;;;;;;10280695;28;20079;-55
2022/03/19 05:30:53;;;;;;;22.13;14.85;;;;;;;;;;10276152;28;20068;-49
2022/03/19 05:35:53;;;;;;;23.88;14.82;;;;;;;;;;10276023;28;20489;-54
2022/03/19 05:40:52;;;;;;;25.85;18.40;;;;;;;;;;10275612;28;20083;-53
2022/03/19 05:45:50;;;;;;;39.70;19.80;;;;;;;;;;10283837;28;20466;-53
2022/03/19 05:50:49;;;;;;;40.67;24.77;;;;;;;;;;10276466;28;20067;-48
2022/03/19 05:55:48;;;;;;;35.70;23.75;;;;;;;;;;10275209;28;20083;-52
2022/03/19 06:00:47;;;;;;;50.78;29.40;;;;;;;;;;10275264;28;20072;-52
2022/03/19 06:05:45;;;;;;;28.15;16.10;;;;;;;;;;10276254;28;20084;-48
2022/03/19 06:10:44;;;;;;;20.10;14.52;;;;;;;;;;10278823;28;20163;-50
2022/03/19 06:15:43;;;;;;;26.40;17.38;;;;;;;;;;10276279;28;20100;-52
2022/03/19 06:20:41;;;;;;;37.92;25.52;;;;;;;;;;10273501;28;20097;-52
2022/03/19 06:25:40;;;;;;;29.98;19.10;;;;;;;;;;10273900;28;20076;-53
2022/03/19 06:30:38;;;;;;;23.63;14.27;;;;;;;;;;10274285;28;20509;-52
2022/03/19 06:40:54;;;;;;;34.47;22.35;;;;;;;;;;10284105;28;20075;-52
2022/03/19 06:45:54;;;;;;;23.17;16.55;;;;;;;;;;10272901;28;20068;-53
2022/03/19 06:50:54;;;;;;;20.35;15.23;;;;;;;;;;10273218;28;20068;-50
2022/03/19 06:55:53;;;;;;;26.17;16.15;;;;;;;;;;10294854;28;20072;-50
2022/03/19 07:00:52;;;;;;;13.98;10.48;;;;;;;;;;10292321;28;20072;-54
2022/03/19 07:05:51;;;;;;;13.35;9.60;;;;;;;;;;10299078;28;20517;-50
2022/03/19 07:11:10;;;;;;;24.13;16.20;;;;;;;;;;10277436;28;20100;-52
2022/03/19 07:16:09;;;;;;;16.38;12.02;;;;;;;;;;10295944;28;20072;-49
2022/03/19 07:21:07;;;;;;;18.80;14.18;;;;;;;;;;10280453;28;20102;-54
2022/03/19 07:26:06;;;;;;;23.77;17.50;;;;;;;;;;10285253;28;20072;-52
2022/03/19 07:31:05;;;;;;;23.83;15.23;;;;;;;;;;10302048;28;20506;-52
2022/03/19 07:36:04;;;;;;;38.17;30.58;;;;;;;;;;10276238;28;20526;-53
2022/03/19 07:46:20;;;;;;;18.50;14.65;;;;;;;;;;10281220;28;20088;-52
2022/03/19 07:51:19;;;;;;;19.02;13.27;;;;;;;;;;10279751;28;20072;-54
2022/03/19 07:56:17;;;;;;;17.52;10.52;;;;;;;;;;10282268;28;20083;-53
2022/03/19 08:01:16;;;;;;;24.33;13.32;;;;;;;;;;10283688;28;20076;-53
2022/03/19 08:06:15;;;;;;;15.13;10.40;;;;;;;;;;10283058;28;20467;-53
2022/03/19 08:11:14;;;;;;;19.38;11.55;;;;;;;;;;10283458;28;20091;-53
2022/03/19 08:16:12;;;;;;;16.90;10.98;;;;;;;;;;10283491;28;20080;-53
2022/03/19 08:21:11;;;;;;;16.50;10.90;;;;;;;;;;10294224;28;20095;-52
2022/03/19 08:26:11;;;;;;;18.95;12.82;;;;;;;;;;10285490;28;20541;-52
2022/03/19 08:31:09;;;;;;;13.02;10.05;;;;;;;;;;10282789;28;20162;-52
2022/03/19 08:36:07;;;;;;;11.07;8.48;;;;;;;;;;10286525;28;20076;-52
2022/03/19 08:41:05;;;;;;;15.98;8.88;;;;;;;;;;10280954;28;20069;-52
2022/03/19 08:46:08;;;;;;;12.85;8.55;;;;;;;;;;10288661;28;20083;-54
2022/03/19 08:56:22;;;;;;;;;;;;;;;;;;10280279;28;20083;-53
2022/03/19 09:01:22;;;;;;;15.13;9.05;;;;;;;;;;10278254;28;19969;-51
2022/03/19 09:06:20;;;;;;;15.98;10.55;;;;;;;;;;10284659;28;20563;-54
2022/03/19 09:11:19;;;;;;;23.67;12.70;;;;;;;;;;10311464;28;20052;-54
2022/03/19 09:16:18;;;;;;;12.75;9.95;;;;;;;;;;10278114;28;20068;-54
2022/03/19 09:21:18;;;;;;;15.00;10.32;;;;;;;;;;10286748;28;20075;-52
2022/03/19 09:26:16;;;;;;;9.45;7.57;;;;;;;;;;10316429;28;20506;-54
2022/03/19 09:31:16;;;;;;;14.65;7.72;;;;;;;;;;10304368;28;20544;-52
2022/03/19 09:36:15;;;;;;;34.03;13.10;;;;;;;;;;10296053;28;20092;-51
2022/03/19 09:41:14;;;;;;;13.32;9.73;;;;;;;;;;10299146;28;20091;-53
2022/03/19 09:46:18;;;;;;;18.80;8.52;;;;;;;;;;10298343;28;20068;-51
2022/03/19 09:51:17;;;;;;;9.18;6.95;;;;;;;;;;10300359;28;20064;-52
2022/03/19 09:56:17;;;;;;;12.55;7.60;;;;;;;;;;10301975;28;20072;-52
2022/03/19 10:01:17;;;;;;;10.57;7.18;;;;;;;;;;10629897;22;20069;-53
2022/03/19 10:11:35;;;;;;;13.20;9.52;;;;;;;;;;10182043;28;20065;-54
2022/03/19 10:16:35;;;;;;;8.60;6.45;;;;;;;;;;10186510;28;20504;-55
2022/03/19 10:21:35;;;;;;;11.77;9.48;;;;;;;;;;10191836;28;20085;-54
2022/03/19 10:26:37;;;;;;;24.88;15.65;;;;;;;;;;10189869;28;20489;-54
2022/03/19 10:31:36;;;;;;;10.55;7.95;;;;;;;;;;10184692;28;20514;-53
2022/03/19 10:36:37;;;;;;;10.35;7.40;;;;;;;;;;10185771;28;20791;-54
2022/03/19 10:41:37;;;;;;;11.82;7.38;;;;;;;;;;10188662;28;20502;-56
2022/03/19 10:46:35;;;;;;;21.17;14.02;;;;;;;;;;10189636;28;20085;-56
2022/03/19 10:51:38;;;;;;;13.95;10.30;;;;;;;;;;10188750;28;20077;-53
2022/03/19 10:56:37;;;;;;;10.65;7.20;;;;;;;;;;10188893;28;20460;-50
2022/03/19 11:01:36;;;;;;;11.00;8.30;;;;;;;;;;10185129;28;20086;-54
2022/03/19 11:06:37;;;;;;;12.48;8.23;;;;;;;;;;10181619;28;20092;-52
2022/03/19 11:11:38;;;;;;;9.80;8.80;;;;;;;;;;10165972;28;20065;-52
2022/03/19 11:16:38;;;;;;;17.08;9.77;;;;;;;;;;10184693;28;20081;-53
2022/03/19 11:21:36;;;;;;;20.23;14.32;;;;;;;;;;10162534;28;20097;-55
2022/03/19 11:26:35;;;;;;;11.77;9.23;;;;;;;;;;10186993;28;20081;-53
2022/03/19 11:31:34;;;;;;;12.18;8.23;;;;;;;;;;10183599;28;20495;-50
2022/03/19 11:36:53;;;;;;;13.05;8.93;;;;;;;;;;10185992;28;20084;-54
2022/03/19 11:41:51;;;;;;;16.80;9.05;;;;;;;;;;10184439;28;20093;-55
2022/03/19 11:46:56;;;;;;;28.25;17.30;;;;;;;;;;10185902;28;20285;-52
2022/03/19 11:51:56;;;;;;;15.63;11.50;;;;;;;;;;10185452;28;20078;-54
2022/03/19 11:57:06;;;;;;;13.70;9.15;;;;;;;;;;10186782;28;20057;-54
2022/03/19 12:02:08;;;;;;;14.60;10.65;;;;;;;;;;10191077;28;20081;-52
2022/03/19 12:07:08;;;;;;;14.60;10.20;;;;;;;;;;10185275;28;20066;-48
2022/03/19 12:12:08;;;;;;;22.40;16.80;;;;;;;;;;10185914;28;20074;-49
2022/03/19 12:17:15;;;;;;;22.80;12.77;;;;;;;;;;10159581;28;20078;-52
2022/03/19 12:22:25;;;;;;;26.00;16.30;;;;;;;;;;10182665;28;20402;-50
2022/03/19 12:27:24;;;;;;;17.98;12.07;;;;;;;;;;10159349;28;20084;-49
2022/03/19 12:32:22;;;;;;;15.90;10.60;;;;;;;;;;10184494;28;20074;-49
2022/03/19 12:37:21;;;;;;;21.92;11.50;;;;;;;;;;10184887;28;20068;-52
2022/03/19 12:42:30;;;;;;;15.30;9.13;;;;;;;;;;10167154;28;20077;-52
2022/03/19 12:47:28;;;;;;;9.82;6.97;;;;;;;;;;10156301;28;20066;-52
2022/03/19 12:52:27;;;;;;;10.10;6.95;;;;;;;;;;10156890;28;20093;-46
2022/03/19 12:57:25;;;;;;;16.23;9.43;;;;;;;;;;10162446;28;20434;-48
2022/03/19 13:02:27;;;;;;;9.40;7.07;;;;;;;;;;10195108;28;20074;-50
2022/03/19 13:07:26;;;;;;;11.73;6.93;;;;;;;;;;10194509;28;20545;-47
2022/03/19 13:12:25;;;;;;;14.05;8.75;;;;;;;;;;10195145;28;20073;-46
2022/03/19 13:17:24;;;;;;;13.43;9.45;;;;;;;;;;10182800;28;20093;-48
2022/03/19 13:22:24;;;;;;;13.13;9.20;;;;;;;;;;10191580;28;20085;-53
2022/03/19 13:27:26;;;;;;;21.90;12.35;;;;;;;;;;10191606;28;20074;-50
2022/03/19 13:32:24;;;;;;;24.73;14.95;;;;;;;;;;10180647;28;20073;-52
2022/03/19 13:37:24;;;;;;;13.93;7.85;;;;;;;;;;10184905;28;20073;-49
2022/03/19 13:42:29;;;;;;;17.20;9.52;;;;;;;;;;10191245;28;20167;-53
2022/03/19 13:47:32;;;;;;;11.05;7.57;;;;;;;;;;10160735;28;20066;-52
2022/03/19 13:52:33;;;;;;;56.38;20.65;;;;;;;;;;10178348;28;20106;-54
2022/03/19 13:57:32;;;;;;;21.83;11.95;;;;;;;;;;10181586;28;20082;-55
2022/03/19 14:02:30;;;;;;;15.23;10.77;;;;;;;;;;10164100;28;20069;-54
2022/03/19 14:07:31;;;;;;;13.90;9.43;;;;;;;;;;10173107;28;20058;-49
2022/03/19 14:12:34;;;;;;;27.90;18.02;;;;;;;;;;10169460;28;20085;-52
2022/03/19 14:17:42;;;;;;;27.25;17.45;;;;;;;;;;10173117;28;20076;-54
2022/03/19 14:22:41;;;;;;;38.20;13.18;;;;;;;;;;10180220;28;20515;-53
2022/03/19 14:27:40;;;;;;;25.48;16.33;;;;;;;;;;10183202;28;20695;-55
2022/03/19 14:32:51;;;;;;;24.20;15.55;;;;;;;;;;10177998;28;20096;-55
2022/03/19 14:37:49;;;;;;;24.27;13.85;;;;;;;;;;10185617;28;20085;-53
2022/03/19 14:42:50;;;;;;;13.60;9.25;;;;;;;;;;10162365;28;20077;-51
2022/03/19 14:47:48;;;;;;;30.95;20.35;;;;;;;;;;10184165;28;20455;-55
2022/03/19 14:52:47;;;;;;;32.40;21.77;;;;;;;;;;10188148;28;20077;-52
2022/03/19 14:57:45;;;;;;;38.38;18.88;;;;;;;;;;10188752;28;20081;-50
2022/03/19 15:02:45;;;;;;;29.48;15.95;;;;;;;;;;10188829;28;20100;-54
2022/03/19 15:07:44;;;;;;;17.27;10.18;;;;;;;;;;10187230;28;20065;-54
2022/03/19 15:12:42;;;;;;;18.75;11.73;;;;;;;;;;10187211;28;20072;-54
2022/03/19 15:17:41;;;;;;;17.58;12.30;;;;;;;;;;10188097;28;20073;-53
2022/03/19 15:22:41;;;;;;;20.40;15.63;;;;;;;;;;10187090;28;20196;-54
2022/03/19 15:27:41;;;;;;;23.35;18.13;;;;;;;;;;10186953;28;20081;-55
2022/03/19 15:32:39;;;;;;;78.72;47.53;;;;;;;;;;10185351;28;20177;-52
2022/03/19 15:37:38;;;;;;;51.10;32.10;;;;;;;;;;10186463;28;20459;-55
2022/03/19 15:42:38;;;;;;;15.80;8.85;;;;;;;;;;10187373;28;20077;-56
2022/03/19 15:47:37;;;;;;;16.52;10.70;;;;;;;;;;10186468;28;20490;-55
2022/03/19 15:52:35;;;;;;;22.13;13.93;;;;;;;;;;10187090;28;20080;-54
2022/03/19 15:57:34;;;;;;;19.77;13.60;;;;;;;;;;10184404;28;20082;-53
2022/03/19 16:02:33;;;;;;;28.13;19.27;;;;;;;;;;10185668;28;20089;-50
2022/03/19 16:07:32;;;;;;;25.42;16.65;;;;;;;;;;10186524;28;20073;-48
2022/03/19 16:12:30;;;;;;;31.55;18.00;;;;;;;;;;10185473;28;20070;-53
2022/03/19 16:17:29;;;;;;;34.17;21.95;;;;;;;;;;10182987;28;20078;-51
2022/03/19 16:22:29;;;;;;;87.43;46.75;;;;;;;;;;10186475;28;20084;-52
2022/03/19 16:27:27;;;;;;;58.75;32.90;;;;;;;;;;10185811;28;20070;-54
2022/03/19 16:32:26;;;;;;;31.40;19.67;;;;;;;;;;10184826;28;20081;-53
2022/03/19 16:37:28;;;;;;;47.90;25.55;;;;;;;;;;10184365;28;20084;-51
2022/03/19 16:42:28;;;;;;;47.00;27.25;;;;;;;;;;10185471;28;20130;-50
2022/03/19 16:47:26;;;;;;;48.42;24.80;;;;;;;;;;10185460;28;20066;-50
2022/03/19 16:52:25;;;;;;;63.95;30.23;;;;;;;;;;10184715;28;20062;-51
2022/03/19 16:57:24;;;;;;;51.42;27.08;;;;;;;;;;10189536;28;20078;-53
2022/03/19 17:02:23;;;;;;;56.28;30.80;;;;;;;;;;10166383;28;20093;-53
2022/03/19 17:07:22;;;;;;;47.33;26.70;;;;;;;;;;10184132;28;20106;-52
2022/03/19 17:12:20;;;;;;;58.85;30.58;;;;;;;;;;10183290;28;20538;-49
2022/03/19 17:17:18;;;;;;;47.15;29.67;;;;;;;;;;10156984;28;20084;-53
2022/03/19 17:22:19;;;;;;;44.25;23.15;;;;;;;;;;10159986;28;20481;-48
2022/03/19 17:27:17;;;;;;;26.33;18.52;;;;;;;;;;10160213;28;20081;-52
2022/03/19 17:32:16;;;;;;;39.22;24.95;;;;;;;;;;10177992;28;20074;-56
2022/03/19 17:37:15;;;;;;;47.75;26.98;;;;;;;;;;10160385;28;20081;-55
2022/03/19 17:42:14;;;;;;;62.38;28.40;;;;;;;;;;10179930;28;20078;-55
2022/03/19 17:47:13;;;;;;;66.97;36.13;;;;;;;;;;10183652;28;20086;-54
2022/03/19 17:52:11;;;;;;;90.45;45.38;;;;;;;;;;10183239;28;20046;-55
2022/03/19 17:57:10;;;;;;;70.45;42.35;;;;;;;;;;10192989;28;20078;-54
2022/03/19 18:02:10;;;;;;;59.13;37.53;;;;;;;;;;10193031;28;20050;-54
2022/03/19 18:07:09;;;;;;;94.78;54.53;;;;;;;;;;10182733;28;20074;-54
2022/03/19 18:12:08;;;;;;;93.82;51.00;;;;;;;;;;10183023;28;20530;-54
2022/03/19 18:17:06;;;;;;;80.88;47.45;;;;;;;;;;10182347;28;20066;-56
2022/03/19 18:22:06;;;;;;;98.07;52.95;;;;;;;;;;10185347;28;20062;-55
2022/03/19 18:27:04;;;;;;;91.55;49.95;;;;;;;;;;10182910;28;20069;-49
2022/03/19 18:32:04;;;;;;;90.00;48.30;;;;;;;;;;10174271;28;20071;-54
2022/03/19 18:37:02;;;;;;;81.57;48.35;;;;;;;;;;10160335;28;20600;-54
2022/03/19 18:42:02;;;;;;;81.57;50.10;;;;;;;;;;10178526;28;20069;-53
2022/03/19 18:47:00;;;;;;;65.18;37.95;;;;;;;;;;10175758;28;20073;-53
2022/03/19 18:51:59;;;;;;;51.92;34.83;;;;;;;;;;10178959;28;20077;-52
2022/03/19 18:56:57;;;;;;;49.72;27.83;;;;;;;;;;10155406;28;20129;-52
2022/03/19 19:01:57;;;;;;;53.40;29.42;;;;;;;;;;10179809;28;20081;-54
2022/03/19 19:06:55;;;;;;;89.00;49.10;;;;;;;;;;10184961;28;20064;-50
2022/03/19 19:11:53;;;;;;;108.80;60.65;;;;;;;;;;10171100;28;20650;-55
2022/03/19 19:16:52;;;;;;;36.15;21.05;;;;;;;;;;10171863;28;20062;-54
2022/03/19 19:21:51;;;;;;;22.08;14.73;;;;;;;;;;10173300;28;20085;-54
2022/03/19 19:26:50;;;;;;;24.63;15.27;;;;;;;;;;10183173;28;20073;-53
2022/03/19 19:31:49;;;;;;;29.45;16.70;;;;;;;;;;10180085;28;20073;-54
2022/03/19 19:36:47;;;;;;;55.40;30.27;;;;;;;;;;10194406;28;20074;-53
2022/03/19 19:41:47;;;;;;;32.67;22.00;;;;;;;;;;10193481;28;20065;-54
2022/03/19 19:46:45;;;;;;;41.40;26.35;;;;;;;;;;10189969;28;20517;-55
2022/03/19 19:51:43;;;;;;;47.85;29.55;;;;;;;;;;10191457;28;20077;-51
2022/03/19 20:01:59;;;;;;;41.33;22.83;;;;;;;;;;10182146;28;20570;-50
2022/03/19 20:12:13;;;;;;;37.10;24.45;;;;;;;;;;10192094;28;20069;-51
2022/03/19 20:17:13;;;;;;;58.15;33.55;;;;;;;;;;10187256;28;20065;-55
2022/03/19 20:22:11;;;;;;;55.90;32.22;;;;;;;;;;10168834;28;20069;-54
2022/03/19 20:27:09;;;;;;;72.43;39.40;;;;;;;;;;10163958;28;20118;-51
2022/03/19 20:32:09;;;;;;;86.63;49.35;;;;;;;;;;10179410;28;20074;-55
2022/03/19 20:37:08;;;;;;;99.15;56.92;;;;;;;;;;10189682;28;20088;-55
2022/03/19 20:42:07;;;;;;;103.68;58.53;;;;;;;;;;10177138;28;20081;-56
2022/03/19 20:47:09;;;;;;;98.47;59.97;;;;;;;;;;10167657;28;20058;-52
2022/03/19 20:52:09;;;;;;;85.45;53.60;;;;;;;;;;10174009;28;20089;-55
2022/03/19 20:57:07;;;;;;;75.63;46.85;;;;;;;;;;10178099;28;20092;-50
2022/03/19 21:02:06;;;;;;;67.45;44.83;;;;;;;;;;10160466;28;20081;-54
2022/03/19 21:07:05;;;;;;;35.17;25.00;;;;;;;;;;10165153;28;20066;-55
2022/03/19 21:12:06;;;;;;;37.05;25.95;;;;;;;;;;10178143;28;20073;-54
2022/03/19 21:17:05;;;;;;;34.88;24.73;;;;;;;;;;10183731;28;20107;-53
2022/03/19 21:22:03;;;;;;;41.95;22.80;;;;;;;;;;10178350;28;20473;-52
2022/03/19 21:27:02;;;;;;;33.10;20.83;;;;;;;;;;10181452;28;20383;-53
2022/03/19 21:32:01;;;;;;;62.97;30.02;;;;;;;;;;10174965;28;20065;-55
2022/03/19 21:37:00;;;;;;;78.28;38.25;;;;;;;;;;10176884;28;20065;-52
2022/03/19 21:41:58;;;;;;;88.95;42.88;;;;;;;;;;10181088;28;20080;-55
2022/03/19 21:46:57;;;;;;;86.78;39.83;;;;;;;;;;10172253;28;20078;-52
2022/03/19 21:51:57;;;;;;;53.38;25.20;;;;;;;;;;10174806;28;20104;-51
2022/03/19 21:56:55;;;;;;;109.40;47.40;;;;;;;;;;10177204;28;20064;-53
2022/03/19 22:01:54;;;;;;;41.55;19.70;;;;;;;;;;10164565;28;20496;-53
2022/03/19 22:06:53;;;;;;;15.73;12.80;;;;;;;;;;10166612;28;20061;-50
2022/03/19 22:11:52;;;;;;;21.23;13.80;;;;;;;;;;10168897;28;20066;-51
2022/03/19 22:16:51;;;;;;;23.98;15.88;;;;;;;;;;10181561;28;20502;-48
2022/03/19 22:21:49;;;;;;;18.33;15.23;;;;;;;;;;10178362;28;20088;-52
2022/03/19 22:26:47;;;;;;;18.75;14.38;;;;;;;;;;10162327;28;20069;-45
2022/03/19 22:31:47;;;;;;;27.35;10.63;;;;;;;;;;10167950;28;20092;-52
2022/03/19 22:36:45;;;;;;;32.47;23.27;;;;;;;;;;10159723;28;20073;-53
2022/03/19 22:41:44;;;;;;;16.10;11.77;;;;;;;;;;10163881;28;20093;-51
2022/03/19 22:46:42;;;;;;;23.08;12.50;;;;;;;;;;10162753;28;20062;-53
2022/03/19 22:51:41;;;;;;;23.45;15.75;;;;;;;;;;10160153;28;20457;-54
2022/03/19 22:56:40;;;;;;;18.55;13.13;;;;;;;;;;10160795;28;20073;-54
2022/03/19 23:01:38;;;;;;;22.08;15.73;;;;;;;;;;10164833;28;20096;-55
2022/03/19 23:06:37;;;;;;;31.92;18.17;;;;;;;;;;10161461;28;20065;-54
2022/03/19 23:11:38;;;;;;;24.30;14.50;;;;;;;;;;10169584;28;20078;-55
2022/03/19 23:16:37;;;;;;;28.88;19.13;;;;;;;;;;10193976;28;20088;-54
2022/03/19 23:21:36;;;;;;;38.63;23.90;;;;;;;;;;10192859;28;20077;-55
2022/03/19 23:26:35;;;;;;;22.33;15.10;;;;;;;;;;10194328;28;20081;-56
2022/03/19 23:31:35;;;;;;;27.65;18.08;;;;;;;;;;10193577;28;20077;-55
2022/03/19 23:36:34;;;;;;;29.25;16.88;;;;;;;;;;10193353;28;20463;-56
2022/03/19 23:41:33;;;;;;;39.47;23.75;;;;;;;;;;10193799;28;20088;-55
2022/03/19 23:46:31;;;;;;;28.42;18.48;;;;;;;;;;10197654;28;20042;-54
2022/03/19 23:51:31;;;;;;;20.77;17.40;;;;;;;;;;10197817;28;20053;-52
2022/03/19 23:56:29;;;;;;;16.65;11.73;;;;;;;;;;10184889;28;20483;-54
